createdAt,value
2017-12-23T00:00:22.020Z,1025.28
2017-12-23T00:01:22.042Z,1025.21
2017-12-23T00:02:22.057Z,1025.21
2017-12-23T00:03:22.077Z,1025.21
2017-12-23T00:04:22.095Z,1025.2
2017-12-23T00:05:22.111Z,1025.28
2017-12-23T00:06:22.118Z,1025.28
2017-12-23T00:07:22.132Z,1025.18
2017-12-23T00:08:22.156Z,1025.17
2017-12-23T00:09:22.167Z,1025.2
2017-12-23T00:10:22.183Z,1025.16
2017-12-23T00:11:22.198Z,1025.09
2017-12-23T00:13:22.244Z,1024.99
2017-12-23T00:14:22.258Z,1025.04
2017-12-23T00:15:22.265Z,1025.05
2017-12-23T00:16:22.287Z,1025
2017-12-23T00:17:22.284Z,1024.98
2017-12-23T00:18:22.294Z,1025.03
2017-12-23T00:19:22.307Z,1024.95
2017-12-23T00:20:22.325Z,1025.01
2017-12-23T00:21:22.341Z,1025
2017-12-23T00:22:22.363Z,1024.98
2017-12-23T00:23:22.384Z,1024.92
2017-12-23T00:24:22.395Z,1024.95
2017-12-23T00:25:22.412Z,1024.93
2017-12-23T00:26:22.430Z,1024.91
2017-12-23T00:27:22.442Z,1024.84
2017-12-23T00:29:22.480Z,1024.79
2017-12-23T00:30:22.495Z,1024.74
2017-12-23T00:31:22.508Z,1024.71
2017-12-23T00:32:22.524Z,1024.66
2017-12-23T00:33:22.545Z,1024.6
2017-12-23T00:34:22.560Z,1024.65
2017-12-23T00:35:22.581Z,1024.61
2017-12-23T00:36:22.594Z,1024.68
2017-12-23T00:37:22.609Z,1024.67
2017-12-23T00:38:22.626Z,1024.68
2017-12-23T00:39:22.655Z,1024.65
2017-12-23T00:40:22.667Z,1024.61
2017-12-23T00:41:22.683Z,1024.6
2017-12-23T00:42:22.701Z,1024.62
2017-12-23T00:43:22.711Z,1024.63
2017-12-23T00:45:22.746Z,1024.62
2017-12-23T00:46:22.769Z,1024.63
2017-12-23T00:47:22.778Z,1024.6
2017-12-23T00:48:22.803Z,1024.59
2017-12-23T00:49:22.818Z,1024.61
2017-12-23T00:50:22.839Z,1024.66
2017-12-23T00:51:22.856Z,1024.66
2017-12-23T00:52:22.868Z,1024.73
2017-12-23T00:53:22.880Z,1024.71
2017-12-23T00:54:22.906Z,1024.81
2017-12-23T00:55:22.918Z,1024.73
2017-12-23T00:56:22.944Z,1024.62
2017-12-23T00:57:22.957Z,1024.55
2017-12-23T00:58:22.970Z,1024.5
2017-12-23T01:00:23.010Z,1024.41
2017-12-23T01:01:23.025Z,1024.42
2017-12-23T01:02:23.033Z,1024.32
2017-12-23T01:03:23.056Z,1024.35
2017-12-23T01:04:23.078Z,1024.33
2017-12-23T01:05:23.094Z,1024.24
2017-12-23T01:06:23.110Z,1024.21
2017-12-23T01:07:23.127Z,1024.19
2017-12-23T01:08:23.144Z,1024.15
2017-12-23T01:09:23.149Z,1024.23
2017-12-23T01:10:23.173Z,1024.1
2017-12-23T01:11:23.189Z,1024.1
2017-12-23T01:12:23.204Z,1024.1
2017-12-23T01:13:23.221Z,1024.2
2017-12-23T01:14:23.240Z,1024.17
2017-12-23T01:15:23.250Z,1024.24
2017-12-23T01:16:23.272Z,1024.24
2017-12-23T01:17:23.284Z,1024.21
2017-12-23T01:18:23.301Z,1024.21
2017-12-23T01:19:23.317Z,1024.23
2017-12-23T01:20:23.338Z,1024.23
2017-12-23T01:21:23.362Z,1024.23
2017-12-23T01:22:23.380Z,1024.22
2017-12-23T01:23:23.389Z,1024.21
2017-12-23T01:24:23.403Z,1024.23
2017-12-23T01:25:23.423Z,1024.24
2017-12-23T01:26:23.440Z,1024.15
2017-12-23T01:27:23.458Z,1024.13
2017-12-23T01:28:23.473Z,1024.13
2017-12-23T01:29:23.486Z,1024.08
2017-12-23T01:30:23.506Z,1024.05
2017-12-23T01:32:23.547Z,1024.01
2017-12-23T01:33:23.554Z,1023.98
2017-12-23T01:34:23.581Z,1024
2017-12-23T01:35:23.594Z,1024.07
2017-12-23T01:36:23.605Z,1023.92
2017-12-23T01:37:23.632Z,1023.92
2017-12-23T01:38:23.642Z,1023.87
2017-12-23T01:39:23.654Z,1023.88
2017-12-23T01:40:23.675Z,1023.87
2017-12-23T01:41:23.694Z,1023.91
2017-12-23T01:42:23.715Z,1023.78
2017-12-23T01:43:23.726Z,1023.8
2017-12-23T01:44:23.745Z,1023.88
2017-12-23T01:45:23.760Z,1023.87
2017-12-23T01:46:23.778Z,1023.92
2017-12-23T01:48:23.805Z,1023.91
2017-12-23T01:49:23.828Z,1023.96
2017-12-23T01:50:23.848Z,1023.9
2017-12-23T01:51:23.855Z,1023.91
2017-12-23T01:52:23.871Z,1023.94
2017-12-23T01:53:23.887Z,1023.92
2017-12-23T01:54:23.909Z,1023.94
2017-12-23T01:55:23.921Z,1024.02
2017-12-23T01:56:23.949Z,1023.94
2017-12-23T01:57:23.961Z,1023.92
2017-12-23T01:58:23.980Z,1023.89
2017-12-23T01:59:23.993Z,1023.86
2017-12-23T02:00:24.016Z,1023.93
2017-12-23T02:01:24.022Z,1023.82
2017-12-23T02:02:24.042Z,1023.82
2017-12-23T02:04:24.075Z,1023.78
2017-12-23T02:05:24.099Z,1023.77
2017-12-23T02:06:24.116Z,1023.67
2017-12-23T02:07:24.124Z,1023.58
2017-12-23T02:08:24.141Z,1023.67
2017-12-23T02:09:24.161Z,1023.62
2017-12-23T02:10:24.171Z,1023.6
2017-12-23T02:11:24.186Z,1023.66
2017-12-23T02:12:24.213Z,1023.67
2017-12-23T02:13:24.224Z,1023.74
2017-12-23T02:14:24.239Z,1023.85
2017-12-23T02:15:24.260Z,1023.72
2017-12-23T02:16:24.269Z,1023.7
2017-12-23T02:17:24.297Z,1023.62
2017-12-23T02:18:24.309Z,1023.64
2017-12-23T02:20:24.336Z,1023.57
2017-12-23T02:21:24.359Z,1023.53
2017-12-23T02:22:24.378Z,1023.55
2017-12-23T02:23:24.384Z,1023.63
2017-12-23T02:24:24.405Z,1023.64
2017-12-23T02:25:24.428Z,1023.63
2017-12-23T02:26:24.438Z,1023.6
2017-12-23T02:27:24.457Z,1023.56
2017-12-23T02:28:24.473Z,1023.52
2017-12-23T02:29:24.484Z,1023.48
2017-12-23T02:30:24.508Z,1023.5
2017-12-23T02:31:24.516Z,1023.4
2017-12-23T02:32:24.540Z,1023.43
2017-12-23T02:33:24.555Z,1023.39
2017-12-23T02:35:24.594Z,1023.37
2017-12-23T02:36:24.598Z,1023.35
2017-12-23T02:37:24.619Z,1023.41
2017-12-23T02:38:24.638Z,1023.37
2017-12-23T02:39:24.653Z,1023.39
2017-12-23T02:40:24.669Z,1023.37
2017-12-23T02:41:24.681Z,1023.38
2017-12-23T02:42:24.698Z,1023.37
2017-12-23T02:43:24.720Z,1023.35
2017-12-23T02:44:24.738Z,1023.33
2017-12-23T02:45:24.752Z,1023.24
2017-12-23T02:46:24.768Z,1023.16
2017-12-23T02:47:24.784Z,1023.19
2017-12-23T02:48:24.808Z,1023.09
2017-12-23T02:49:24.813Z,1023.14
2017-12-23T02:50:24.835Z,1023.19
2017-12-23T02:51:24.846Z,1023.22
2017-12-23T02:52:24.870Z,1023.2
2017-12-23T02:53:24.891Z,1023.24
2017-12-23T02:54:24.900Z,1023.2
2017-12-23T02:55:24.918Z,1023.27
2017-12-23T02:56:24.940Z,1023.25
2017-12-23T02:57:24.947Z,1023.26
2017-12-23T02:58:24.968Z,1023.32
2017-12-23T02:59:24.977Z,1023.26
2017-12-23T03:00:25.003Z,1023.28
2017-12-23T03:01:25.015Z,1023.31
2017-12-23T03:02:25.028Z,1023.33
2017-12-23T03:03:25.052Z,1023.38
2017-12-23T03:04:25.062Z,1023.32
2017-12-23T03:05:25.078Z,1023.31
2017-12-23T03:07:25.111Z,1023.18
2017-12-23T03:08:25.127Z,1023.16
2017-12-23T03:09:25.143Z,1023.2
2017-12-23T03:10:25.170Z,1023.22
2017-12-23T03:11:25.176Z,1023.23
2017-12-23T03:12:25.192Z,1023.21
2017-12-23T03:13:25.219Z,1023.18
2017-12-23T03:14:25.230Z,1023.21
2017-12-23T03:15:25.245Z,1023.15
2017-12-23T03:16:25.259Z,1023.09
2017-12-23T03:17:25.273Z,1023.1
2017-12-23T03:18:25.300Z,1023.14
2017-12-23T03:19:25.317Z,1023.07
2017-12-23T03:20:25.329Z,1023.21
2017-12-23T03:21:25.338Z,1023.17
2017-12-23T03:23:25.377Z,1023.23
2017-12-23T03:24:25.404Z,1023.21
2017-12-23T03:25:25.408Z,1023.21
2017-12-23T03:26:25.419Z,1023.14
2017-12-23T03:27:25.436Z,1023.18
2017-12-23T03:28:25.453Z,1023.16
2017-12-23T03:29:25.479Z,1023.21
2017-12-23T03:30:25.497Z,1023.15
2017-12-23T03:31:25.508Z,1023.13
2017-12-23T03:32:25.516Z,1023.16
2017-12-23T03:33:25.538Z,1023.07
2017-12-23T03:34:25.559Z,1022.98
2017-12-23T03:35:25.567Z,1023.02
2017-12-23T03:36:25.590Z,1022.94
2017-12-23T03:37:25.603Z,1022.89
2017-12-23T03:39:25.634Z,1022.8
2017-12-23T03:40:25.647Z,1022.78
2017-12-23T03:41:25.670Z,1022.79
2017-12-23T03:42:25.679Z,1022.72
2017-12-23T03:43:25.699Z,1022.8
2017-12-23T03:44:25.719Z,1022.68
2017-12-23T03:45:25.733Z,1022.55
2017-12-23T03:46:25.754Z,1022.46
2017-12-23T03:47:25.763Z,1022.44
2017-12-23T03:48:25.775Z,1022.43
2017-12-23T03:49:25.798Z,1022.45
2017-12-23T03:50:25.813Z,1022.41
2017-12-23T03:51:25.831Z,1022.42
2017-12-23T03:52:25.840Z,1022.44
2017-12-23T03:53:25.860Z,1022.42
2017-12-23T03:55:25.899Z,1022.41
2017-12-23T03:56:25.908Z,1022.43
2017-12-23T03:57:25.924Z,1022.4
2017-12-23T03:58:25.937Z,1022.4
2017-12-23T03:59:25.964Z,1022.43
2017-12-23T04:00:25.973Z,1022.36
2017-12-23T04:01:25.987Z,1022.39
2017-12-23T04:02:26.007Z,1022.37
2017-12-23T04:03:26.023Z,1022.37
2017-12-23T04:04:26.039Z,1022.34
2017-12-23T04:05:26.053Z,1022.39
2017-12-23T04:06:26.074Z,1022.4
2017-12-23T04:07:26.087Z,1022.38
2017-12-23T04:08:26.104Z,1022.37
2017-12-23T04:10:26.141Z,1022.39
2017-12-23T04:11:26.151Z,1022.41
2017-12-23T04:12:26.160Z,1022.4
2017-12-23T04:13:26.178Z,1022.37
2017-12-23T04:14:26.204Z,1022.38
2017-12-23T04:15:26.219Z,1022.33
2017-12-23T04:16:26.234Z,1022.25
2017-12-23T04:17:26.243Z,1022.26
2017-12-23T04:18:26.261Z,1022.26
2017-12-23T04:19:26.294Z,1022.26
2017-12-23T04:20:26.290Z,1022.22
2017-12-23T04:21:26.311Z,1022.19
2017-12-23T04:22:26.330Z,1022.15
2017-12-23T04:23:26.341Z,1022.11
2017-12-23T04:24:26.355Z,1022.21
2017-12-23T04:25:26.369Z,1022.21
2017-12-23T04:26:26.390Z,1022.2
2017-12-23T04:27:26.405Z,1022.2
2017-12-23T04:28:26.422Z,1022.14
2017-12-23T04:29:26.432Z,1022.2
2017-12-23T04:30:26.449Z,1022.11
2017-12-23T04:31:26.472Z,1022.09
2017-12-23T04:32:26.487Z,1022.19
2017-12-23T04:33:26.508Z,1022.2
2017-12-23T04:34:26.518Z,1022.18
2017-12-23T04:35:26.540Z,1022.13
2017-12-23T04:36:26.556Z,1022.16
2017-12-23T04:37:26.560Z,1022.09
2017-12-23T04:38:26.576Z,1022.1
2017-12-23T04:39:26.592Z,1022.13
2017-12-23T04:40:26.614Z,1022.11
2017-12-23T04:42:26.648Z,1022.09
2017-12-23T04:43:26.662Z,1022.09
2017-12-23T04:44:26.672Z,1022.09
2017-12-23T04:45:26.693Z,1022.08
2017-12-23T04:46:26.704Z,1022.07
2017-12-23T04:47:26.732Z,1022.02
2017-12-23T04:48:26.740Z,1021.9
2017-12-23T04:49:26.756Z,1021.93
2017-12-23T04:50:26.775Z,1021.9
2017-12-23T04:51:26.784Z,1021.85
2017-12-23T04:52:26.810Z,1021.83
2017-12-23T04:53:26.824Z,1021.8
2017-12-23T04:54:26.837Z,1021.8
2017-12-23T04:55:26.863Z,1021.76
2017-12-23T04:56:26.872Z,1021.75
2017-12-23T04:58:26.901Z,1021.74
2017-12-23T04:59:26.912Z,1021.64
2017-12-23T05:00:26.937Z,1021.64
2017-12-23T05:01:26.946Z,1021.6
2017-12-23T05:02:26.964Z,1021.55
2017-12-23T05:03:26.977Z,1021.53
2017-12-23T05:04:27.005Z,1021.52
2017-12-23T05:05:27.014Z,1021.46
2017-12-23T05:06:27.033Z,1021.52
2017-12-23T05:07:27.045Z,1021.51
2017-12-23T05:08:27.062Z,1021.55
2017-12-23T05:09:27.075Z,1021.53
2017-12-23T05:10:27.091Z,1021.53
2017-12-23T05:11:27.106Z,1021.5
2017-12-23T05:12:27.126Z,1021.52
2017-12-23T05:14:27.155Z,1021.5
2017-12-23T05:15:27.171Z,1021.48
2017-12-23T05:16:27.188Z,1021.47
2017-12-23T05:17:27.213Z,1021.47
2017-12-23T05:18:27.224Z,1021.52
2017-12-23T05:19:27.240Z,1021.45
2017-12-23T05:20:27.257Z,1021.49
2017-12-23T05:21:27.277Z,1021.42
2017-12-23T05:22:27.294Z,1021.44
2017-12-23T05:23:27.410Z,1021.41
2017-12-23T05:24:27.324Z,1021.43
2017-12-23T05:25:27.338Z,1021.42
2017-12-23T05:26:27.348Z,1021.41
2017-12-23T05:27:27.364Z,1021.41
2017-12-23T05:28:27.382Z,1021.51
2017-12-23T05:30:27.420Z,1021.57
2017-12-23T05:31:27.428Z,1021.51
2017-12-23T05:32:27.450Z,1021.53
2017-12-23T05:33:27.463Z,1021.62
2017-12-23T05:34:27.480Z,1021.57
2017-12-23T05:35:27.494Z,1021.49
2017-12-23T05:36:27.512Z,1021.5
2017-12-23T05:37:27.524Z,1021.57
2017-12-23T05:38:27.544Z,1021.65
2017-12-23T05:39:27.563Z,1021.58
2017-12-23T05:40:27.576Z,1021.59
2017-12-23T05:41:27.598Z,1021.56
2017-12-23T05:42:27.614Z,1021.61
2017-12-23T05:43:27.626Z,1021.56
2017-12-23T05:45:27.653Z,1021.51
2017-12-23T05:46:27.668Z,1021.59
2017-12-23T05:47:27.684Z,1021.55
2017-12-23T05:48:27.706Z,1021.51
2017-12-23T05:49:27.727Z,1021.55
2017-12-23T05:50:27.737Z,1021.49
2017-12-23T05:51:27.748Z,1021.48
2017-12-23T05:52:27.772Z,1021.37
2017-12-23T05:53:27.793Z,1021.36
2017-12-23T05:54:27.801Z,1021.36
2017-12-23T05:55:27.813Z,1021.27
2017-12-23T05:56:27.829Z,1021.19
2017-12-23T05:57:27.852Z,1021.18
2017-12-23T05:58:27.873Z,1021.23
2017-12-23T05:59:27.881Z,1021.11
2017-12-23T06:00:27.899Z,1021.16
2017-12-23T06:01:27.909Z,1021.11
2017-12-23T06:02:27.939Z,1021.15
2017-12-23T06:03:27.947Z,1021.12
2017-12-23T06:04:27.962Z,1021.11
2017-12-23T06:05:27.981Z,1021.1
2017-12-23T06:06:28.001Z,1021.13
2017-12-23T06:07:28.014Z,1021.12
2017-12-23T06:08:28.032Z,1021.06
2017-12-23T06:09:28.044Z,1021.15
2017-12-23T06:10:28.059Z,1021.14
2017-12-23T06:11:28.070Z,1021.04
2017-12-23T06:12:28.085Z,1021.03
2017-12-23T06:13:28.109Z,1021.02
2017-12-23T06:14:28.117Z,1020.86
2017-12-23T06:15:28.144Z,1020.85
2017-12-23T06:17:28.177Z,1020.8
2017-12-23T06:18:28.192Z,1020.73
2017-12-23T06:19:28.197Z,1020.71
2017-12-23T06:20:28.214Z,1020.66
2017-12-23T06:21:28.230Z,1020.72
2017-12-23T06:22:28.251Z,1020.62
2017-12-23T06:23:28.265Z,1020.65
2017-12-23T06:24:28.285Z,1020.53
2017-12-23T06:25:28.299Z,1020.59
2017-12-23T06:26:28.313Z,1020.62
2017-12-23T06:27:28.331Z,1020.56
2017-12-23T06:28:28.343Z,1020.59
2017-12-23T06:29:28.364Z,1020.67
2017-12-23T06:30:28.381Z,1020.67
2017-12-23T06:31:28.390Z,1020.7
2017-12-23T06:33:28.424Z,1020.61
2017-12-23T06:34:28.440Z,1020.53
2017-12-23T06:35:28.459Z,1020.57
2017-12-23T06:36:28.475Z,1020.6
2017-12-23T06:37:28.487Z,1020.51
2017-12-23T06:38:28.509Z,1020.5
2017-12-23T06:39:28.520Z,1020.47
2017-12-23T06:40:28.542Z,1020.56
2017-12-23T06:41:28.563Z,1020.53
2017-12-23T06:42:28.567Z,1020.44
2017-12-23T06:43:28.584Z,1020.51
2017-12-23T06:44:28.612Z,1020.43
2017-12-23T06:45:28.620Z,1020.49
2017-12-23T06:46:28.682Z,1020.39
2017-12-23T06:47:28.647Z,1020.43
2017-12-23T06:49:28.680Z,1020.37
2017-12-23T06:50:28.704Z,1020.42
2017-12-23T06:51:28.723Z,1020.36
2017-12-23T06:52:28.733Z,1020.37
2017-12-23T06:53:28.745Z,1020.35
2017-12-23T06:54:28.771Z,1020.3
2017-12-23T06:55:28.778Z,1020.33
2017-12-23T06:56:28.799Z,1020.3
2017-12-23T06:57:28.810Z,1020.33
2017-12-23T06:58:28.826Z,1020.28
2017-12-23T06:59:28.852Z,1020.23
2017-12-23T07:00:28.862Z,1020.21
2017-12-23T07:01:28.879Z,1020.29
2017-12-23T07:02:28.889Z,1020.3
2017-12-23T07:03:28.910Z,1020.27
2017-12-23T07:05:28.949Z,1020.28
2017-12-23T07:06:28.962Z,1020.32
2017-12-23T07:07:28.970Z,1020.19
2017-12-23T07:08:28.987Z,1020.18
2017-12-23T07:09:29.003Z,1020.15
2017-12-23T07:10:29.022Z,1020.14
2017-12-23T07:11:29.039Z,1020.07
2017-12-23T07:12:29.055Z,1020.15
2017-12-23T07:13:29.068Z,1020.12
2017-12-23T07:14:29.087Z,1020.11
2017-12-23T07:15:29.103Z,1020.16
2017-12-23T07:16:29.115Z,1020.18
2017-12-23T07:17:29.136Z,1020.13
2017-12-23T07:18:29.152Z,1020.09
2017-12-23T07:20:29.182Z,1020.13
2017-12-23T07:21:29.204Z,1020.05
2017-12-23T07:22:29.218Z,1020.03
2017-12-23T07:23:29.241Z,1020.04
2017-12-23T07:24:29.250Z,1020.02
2017-12-23T07:25:29.272Z,1020.02
2017-12-23T07:26:29.279Z,1019.93
2017-12-23T07:27:29.296Z,1019.94
2017-12-23T07:28:29.315Z,1019.98
2017-12-23T07:29:29.332Z,1019.98
2017-12-23T07:30:29.348Z,1019.99
2017-12-23T07:31:29.368Z,1019.96
2017-12-23T07:32:29.374Z,1019.98
2017-12-23T07:33:29.399Z,1019.96
2017-12-23T07:34:29.412Z,1019.96
2017-12-23T07:35:29.429Z,1019.93
2017-12-23T07:36:29.451Z,1019.96
2017-12-23T07:37:29.458Z,1020
2017-12-23T07:38:29.474Z,1019.98
2017-12-23T07:39:29.490Z,1019.91
2017-12-23T07:40:29.519Z,1019.89
2017-12-23T07:41:29.534Z,1019.89
2017-12-23T07:42:29.543Z,1019.94
2017-12-23T07:43:29.565Z,1019.9
2017-12-23T07:44:29.572Z,1019.86
2017-12-23T07:45:29.588Z,1019.82
2017-12-23T07:46:29.605Z,1019.83
2017-12-23T07:47:29.627Z,1019.8
2017-12-23T07:48:29.648Z,1019.74
2017-12-23T07:49:29.659Z,1019.77
2017-12-23T07:50:29.670Z,1019.75
2017-12-23T07:52:29.713Z,1019.82
2017-12-23T07:53:29.723Z,1019.69
2017-12-23T07:54:29.746Z,1019.7
2017-12-23T07:55:29.763Z,1019.64
2017-12-23T07:56:29.773Z,1019.61
2017-12-23T07:57:29.784Z,1019.67
2017-12-23T07:58:29.811Z,1019.71
2017-12-23T07:59:29.828Z,1019.58
2017-12-23T08:00:29.840Z,1019.66
2017-12-23T08:01:29.849Z,1019.57
2017-12-23T08:02:29.867Z,1019.58
2017-12-23T08:03:29.884Z,1019.57
2017-12-23T08:04:29.913Z,1019.54
2017-12-23T08:05:29.921Z,1019.58
2017-12-23T08:06:29.938Z,1019.52
2017-12-23T08:08:29.970Z,1019.47
2017-12-23T08:09:29.988Z,1019.39
2017-12-23T08:10:30.000Z,1019.37
2017-12-23T08:11:30.021Z,1019.44
2017-12-23T08:12:30.035Z,1019.41
2017-12-23T08:13:30.054Z,1019.43
2017-12-23T08:14:30.080Z,1019.39
2017-12-23T08:15:30.095Z,1019.39
2017-12-23T08:16:30.098Z,1019.41
2017-12-23T08:17:30.121Z,1019.48
2017-12-23T08:18:30.136Z,1019.47
2017-12-23T08:19:30.153Z,1019.35
2017-12-23T08:20:30.174Z,1019.43
2017-12-23T08:21:30.188Z,1019.34
2017-12-23T08:22:30.201Z,1019.29
2017-12-23T08:24:30.230Z,1019.27
2017-12-23T08:25:30.248Z,1019.41
2017-12-23T08:26:30.268Z,1019.33
2017-12-23T08:27:30.284Z,1019.27
2017-12-23T08:28:30.301Z,1019.29
2017-12-23T08:29:30.321Z,1019.32
2017-12-23T08:30:30.339Z,1019.2
2017-12-23T08:31:30.350Z,1019.18
2017-12-23T08:32:30.378Z,1019.33
2017-12-23T08:33:30.392Z,1019.28
2017-12-23T08:34:30.408Z,1019.28
2017-12-23T08:35:30.413Z,1019.34
2017-12-23T08:36:30.432Z,1019.38
2017-12-23T08:37:30.456Z,1019.27
2017-12-23T08:38:30.470Z,1019.26
2017-12-23T08:40:30.498Z,1019.19
2017-12-23T08:41:30.514Z,1019.26
2017-12-23T08:42:30.536Z,1019.28
2017-12-23T08:43:30.552Z,1019.13
2017-12-23T08:44:30.576Z,1019.22
2017-12-23T08:45:30.581Z,1019.23
2017-12-23T08:46:30.609Z,1019.2
2017-12-23T08:47:30.619Z,1019.17
2017-12-23T08:48:30.638Z,1019.16
2017-12-23T08:49:30.650Z,1019.15
2017-12-23T08:50:30.677Z,1018.97
2017-12-23T08:51:30.686Z,1019
2017-12-23T08:52:30.703Z,1018.97
2017-12-23T08:53:30.720Z,1019.04
2017-12-23T08:55:30.761Z,1019.09
2017-12-23T08:56:30.766Z,1019.07
2017-12-23T08:57:30.784Z,1019.16
2017-12-23T08:58:30.800Z,1019.18
2017-12-23T08:59:30.823Z,1019.24
2017-12-23T09:00:30.844Z,1019.18
2017-12-23T09:01:30.852Z,1019.2
2017-12-23T09:02:30.868Z,1019.2
2017-12-23T09:03:30.885Z,1019.32
2017-12-23T09:04:30.905Z,1019.27
2017-12-23T09:05:30.923Z,1019.38
2017-12-23T09:06:30.937Z,1019.39
2017-12-23T09:07:30.957Z,1019.35
2017-12-23T09:08:30.973Z,1019.39
2017-12-23T09:09:30.986Z,1019.33
2017-12-23T09:10:31.007Z,1019.43
2017-12-23T09:11:31.027Z,1019.45
2017-12-23T09:12:31.046Z,1019.51
2017-12-23T09:13:31.053Z,1019.49
2017-12-23T09:14:31.076Z,1019.62
2017-12-23T09:15:31.091Z,1019.53
2017-12-23T09:16:31.108Z,1019.55
2017-12-23T09:17:31.174Z,1019.56
2017-12-23T09:18:31.137Z,1019.6
2017-12-23T09:19:31.160Z,1019.63
2017-12-23T09:20:31.172Z,1019.67
2017-12-23T09:21:31.193Z,1019.7
2017-12-23T09:22:31.209Z,1019.67
2017-12-23T09:23:31.233Z,1019.63
2017-12-23T09:24:31.254Z,1019.64
2017-12-23T09:25:31.267Z,1019.6
2017-12-23T09:27:31.293Z,1019.81
2017-12-23T09:28:31.312Z,1019.75
2017-12-23T09:29:31.331Z,1019.68
2017-12-23T09:30:31.342Z,1019.74
2017-12-23T09:31:31.362Z,1019.63
2017-12-23T09:32:31.382Z,1019.7
2017-12-23T09:33:31.399Z,1019.67
2017-12-23T09:34:31.416Z,1019.67
2017-12-23T09:35:31.430Z,1019.61
2017-12-23T09:36:31.453Z,1019.6
2017-12-23T09:37:31.462Z,1019.61
2017-12-23T09:38:31.488Z,1019.63
2017-12-23T09:39:31.505Z,1019.55
2017-12-23T09:40:31.514Z,1019.49
2017-12-23T09:41:31.537Z,1019.46
2017-12-23T09:43:31.563Z,1019.45
2017-12-23T09:44:31.581Z,1019.43
2017-12-23T09:45:31.602Z,1019.37
2017-12-23T09:46:31.614Z,1019.35
2017-12-23T09:47:31.633Z,1019.25
2017-12-23T09:48:31.652Z,1019.24
2017-12-23T09:49:31.671Z,1019.23
2017-12-23T09:50:31.689Z,1019.13
2017-12-23T09:51:31.698Z,1019.13
2017-12-23T09:52:31.720Z,1019.14
2017-12-23T09:53:31.745Z,1019.13
2017-12-23T09:54:31.754Z,1019.04
2017-12-23T09:55:31.776Z,1019.06
2017-12-23T09:56:31.789Z,1019.12
2017-12-23T09:57:31.808Z,1019.11
2017-12-23T09:59:31.836Z,1019.16
2017-12-23T10:00:31.853Z,1019.1
2017-12-23T10:01:31.869Z,1019.19
2017-12-23T10:02:31.890Z,1019.14
2017-12-23T10:03:31.903Z,1019.11
2017-12-23T10:04:31.929Z,1019.19
2017-12-23T10:05:31.943Z,1019.14
2017-12-23T10:06:31.958Z,1019.16
2017-12-23T10:07:31.983Z,1019.17
2017-12-23T10:08:31.990Z,1019.19
2017-12-23T10:09:32.012Z,1018.99
2017-12-23T10:10:32.035Z,1018.95
2017-12-23T10:11:32.045Z,1018.87
2017-12-23T10:12:32.060Z,1018.95
2017-12-23T10:13:32.076Z,1018.96
2017-12-23T10:15:32.114Z,1018.91
2017-12-23T10:16:32.138Z,1018.95
2017-12-23T10:17:32.143Z,1018.99
2017-12-23T10:18:32.163Z,1018.95
2017-12-23T10:19:32.179Z,1018.95
2017-12-23T10:20:32.195Z,1018.85
2017-12-23T10:21:32.216Z,1018.94
2017-12-23T10:22:32.235Z,1018.92
2017-12-23T10:23:32.252Z,1018.97
2017-12-23T10:24:32.269Z,1019
2017-12-23T10:25:32.283Z,1019.01
2017-12-23T10:26:32.300Z,1018.99
2017-12-23T10:27:32.324Z,1018.99
2017-12-23T10:28:32.342Z,1018.9
2017-12-23T10:30:32.370Z,1018.9
2017-12-23T10:31:32.386Z,1019.01
2017-12-23T10:32:32.414Z,1018.88
2017-12-23T10:33:32.425Z,1018.83
2017-12-23T10:34:32.450Z,1018.85
2017-12-23T10:35:32.460Z,1018.87
2017-12-23T10:36:32.481Z,1018.77
2017-12-23T10:37:32.491Z,1018.77
2017-12-23T10:38:32.511Z,1018.69
2017-12-23T10:39:32.525Z,1018.65
2017-12-23T10:40:32.547Z,1018.64
2017-12-23T10:41:32.563Z,1018.64
2017-12-23T10:42:32.576Z,1018.63
2017-12-23T10:43:32.597Z,1018.6
2017-12-23T10:44:32.616Z,1018.65
2017-12-23T10:45:32.641Z,1018.68
2017-12-23T10:46:32.649Z,1018.61
2017-12-23T10:47:32.668Z,1018.52
2017-12-23T10:48:32.686Z,1018.52
2017-12-23T10:49:32.698Z,1018.54
2017-12-23T10:50:32.715Z,1018.53
2017-12-23T10:51:32.738Z,1018.48
2017-12-23T10:52:32.755Z,1018.48
2017-12-23T10:53:32.772Z,1018.62
2017-12-23T10:54:32.808Z,1018.5
2017-12-23T10:55:32.810Z,1018.49
2017-12-23T10:56:32.828Z,1018.49
2017-12-23T10:57:32.839Z,1018.52
2017-12-23T10:58:32.867Z,1018.45
2017-12-23T10:59:32.877Z,1018.49
2017-12-23T11:00:32.891Z,1018.46
2017-12-23T11:02:32.931Z,1018.4
2017-12-23T11:03:32.944Z,1018.32
2017-12-23T11:04:32.963Z,1018.31
2017-12-23T11:05:32.982Z,1018.35
2017-12-23T11:06:33.008Z,1018.23
2017-12-23T11:07:33.019Z,1018.26
2017-12-23T11:08:33.031Z,1018.21
2017-12-23T11:09:33.050Z,1018.23
2017-12-23T11:10:33.073Z,1018.29
2017-12-23T11:11:33.084Z,1018.24
2017-12-23T11:12:33.106Z,1018.25
2017-12-23T11:13:33.131Z,1018.27
2017-12-23T11:14:33.142Z,1018.16
2017-12-23T11:15:33.196Z,1018.17
2017-12-23T11:16:33.173Z,1018.07
2017-12-23T11:18:33.212Z,1018.06
2017-12-23T11:19:33.236Z,1018.07
2017-12-23T11:20:33.247Z,1018.04
2017-12-23T11:21:33.261Z,1017.95
2017-12-23T11:22:33.284Z,1017.82
2017-12-23T11:23:33.296Z,1017.79
2017-12-23T11:24:33.314Z,1017.72
2017-12-23T11:25:33.337Z,1017.71
2017-12-23T11:26:33.355Z,1017.65
2017-12-23T11:27:33.373Z,1017.66
2017-12-23T11:28:33.390Z,1017.55
2017-12-23T11:29:33.403Z,1017.67
2017-12-23T11:30:33.421Z,1017.59
2017-12-23T11:31:33.439Z,1017.6
2017-12-23T11:32:33.458Z,1017.6
2017-12-23T11:34:33.503Z,1017.48
2017-12-23T11:35:33.511Z,1017.54
2017-12-23T11:36:33.528Z,1017.46
2017-12-23T11:37:33.552Z,1017.48
2017-12-23T11:38:33.563Z,1017.44
2017-12-23T11:39:33.596Z,1017.42
2017-12-23T11:40:33.607Z,1017.36
2017-12-23T11:41:33.623Z,1017.29
2017-12-23T11:42:33.635Z,1017.34
2017-12-23T11:43:33.664Z,1017.3
2017-12-23T11:44:33.675Z,1017.22
2017-12-23T11:45:33.688Z,1017.32
2017-12-23T11:46:33.717Z,1017.29
2017-12-23T11:47:33.729Z,1017.32
2017-12-23T11:48:33.753Z,1017.32
2017-12-23T11:50:33.785Z,1017.52
2017-12-23T11:51:33.807Z,1017.52
2017-12-23T11:52:33.819Z,1017.42
2017-12-23T11:53:33.832Z,1017.34
2017-12-23T11:54:33.850Z,1017.47
2017-12-23T11:55:33.874Z,1017.27
2017-12-23T11:56:33.890Z,1017.15
2017-12-23T11:57:33.911Z,1017.1
2017-12-23T11:58:33.933Z,1017.12
2017-12-23T11:59:33.943Z,1017.12
2017-12-23T12:00:33.968Z,1017.09
2017-12-23T12:01:33.986Z,1017.11
2017-12-23T12:02:33.994Z,1017.11
2017-12-23T12:03:34.012Z,1017.01
2017-12-23T12:05:34.058Z,1016.78
2017-12-23T12:06:34.065Z,1016.99
2017-12-23T12:07:34.083Z,1016.97
2017-12-23T12:08:34.101Z,1016.96
2017-12-23T12:09:34.120Z,1016.86
2017-12-23T12:10:34.141Z,1016.95
2017-12-23T12:11:34.160Z,1016.78
2017-12-23T12:12:34.185Z,1016.91
2017-12-23T12:13:34.202Z,1016.89
2017-12-23T12:14:34.210Z,1016.8
2017-12-23T12:15:34.231Z,1016.77
2017-12-23T12:16:34.249Z,1016.72
2017-12-23T12:17:34.266Z,1016.73
2017-12-23T12:18:34.285Z,1016.68
2017-12-23T12:19:34.299Z,1016.76
2017-12-23T12:20:34.323Z,1016.7
2017-12-23T12:21:34.339Z,1016.65
2017-12-23T12:22:34.362Z,1016.68
2017-12-23T12:23:34.374Z,1016.76
2017-12-23T12:24:34.393Z,1016.75
2017-12-23T12:25:34.410Z,1016.67
2017-12-23T12:26:34.428Z,1016.59
2017-12-23T12:27:34.445Z,1016.6
2017-12-23T12:28:34.461Z,1016.56
2017-12-23T12:29:34.478Z,1016.58
2017-12-23T12:30:34.497Z,1016.48
2017-12-23T12:31:34.519Z,1016.51
2017-12-23T12:32:34.538Z,1016.46
2017-12-23T12:33:34.561Z,1016.6
2017-12-23T12:34:34.579Z,1016.61
2017-12-23T12:35:34.597Z,1016.44
2017-12-23T12:37:34.627Z,1016.5
2017-12-23T12:38:34.646Z,1016.52
2017-12-23T12:39:34.658Z,1016.59
2017-12-23T12:40:34.678Z,1016.49
2017-12-23T12:41:34.702Z,1016.49
2017-12-23T12:42:34.719Z,1016.52
2017-12-23T12:43:34.742Z,1016.36
2017-12-23T12:44:34.754Z,1016.45
2017-12-23T12:45:34.771Z,1016.48
2017-12-23T12:46:34.795Z,1016.49
2017-12-23T12:47:34.808Z,1016.57
2017-12-23T12:48:34.827Z,1016.45